Time;durP1;ratioP1;P1;durP2;ratioP2;P2;SDS_P1;SDS_P2;PMS_P1;PMS_P2;Temp;Humidity;BMP_temperature;BMP_pressure;BME280_temperature;BME280_humidity;BME280_pressure;Samples;Min_cycle;Max_cycle;Signal;HPM_P1;HPM_P2
2022/08/12 00:44:55;;;;;;;;;;;17.50;99.90;;;;;;5063064;28;20048;-81
2022/08/12 00:47:21;;;;;;;0.30;0.30;;;17.40;99.90;;;;;;5051944;28;19921;-77
2022/08/12 00:49:51;;;;;;;0.13;0.13;;;17.40;99.90;;;;;;5053958;28;20490;-79
2022/08/12 00:52:18;;;;;;;0.20;0.20;;;17.40;99.90;;;;;;5081749;28;20047;-76
2022/08/12 00:54:50;;;;;;;0.20;0.20;;;17.30;99.90;;;;;;5055552;28;20036;-77
2022/08/12 00:57:18;;;;;;;0.30;0.30;;;17.20;99.90;;;;;;5054689;28;20049;-79
2022/08/12 00:59:46;;;;;;;0.10;0.10;;;17.10;99.90;;;;;;5068930;28;20044;-77
2022/08/12 01:02:21;;;;;;;0.35;0.35;;;17.10;99.90;;;;;;5070151;28;20048;-80
2022/08/12 01:13:13;;;;;;;0.15;0.15;;;16.90;99.90;;;;;;5067724;28;20047;-80
2022/08/12 01:15:39;;;;;;;0.22;0.22;;;16.80;99.90;;;;;;5038542;28;20403;-77
2022/08/12 01:18:05;;;;;;;;;;;16.80;99.90;;;;;;5037383;28;20041;-77
2022/08/12 01:20:46;;;;;;;0.30;0.30;;;16.70;99.90;;;;;;5053995;28;19921;-78
2022/08/12 01:23:35;;;;;;;0.20;0.20;;;16.70;99.90;;;;;;5051674;28;20106;-80
2022/08/12 01:26:05;;;;;;;0.25;0.25;;;16.80;99.90;;;;;;5054053;28;20479;-78
2022/08/12 01:28:33;;;;;;;0.47;0.30;;;16.70;99.90;;;;;;5053783;28;20098;-80
2022/08/12 01:31:03;;;;;;;0.20;0.20;;;16.70;99.90;;;;;;5053552;28;20049;-78
2022/08/12 01:33:39;;;;;;;0.20;0.20;;;16.80;99.90;;;;;;5051468;28;20080;-78
2022/08/12 01:36:08;;;;;;;0.20;0.20;;;16.80;99.90;;;;;;5034503;28;20053;-79
2022/08/12 01:38:35;;;;;;;0.30;0.30;;;16.80;99.90;;;;;;5047511;28;20564;-81
2022/08/12 01:41:01;;;;;;;0.10;0.10;;;16.80;99.90;;;;;;5051802;28;20025;-77
2022/08/12 01:43:29;;;;;;;0.10;0.10;;;16.80;99.90;;;;;;5057267;28;20470;-78
2022/08/12 01:46:41;;;;;;;0.32;0.32;;;16.80;99.90;;;;;;5034191;28;20108;-78
2022/08/12 01:49:42;;;;;;;0.20;0.20;;;16.80;99.90;;;;;;5015654;28;20135;-76
2022/08/12 01:52:21;;;;;;;0.22;0.22;;;16.70;99.90;;;;;;5051203;28;20048;-77
2022/08/12 01:54:48;;;;;;;0.30;0.30;;;16.70;99.90;;;;;;5066500;28;20502;-79
2022/08/12 01:57:38;;;;;;;0.20;0.20;;;16.60;99.90;;;;;;5050485;28;20105;-79
2022/08/12 02:00:14;;;;;;;0.20;0.20;;;16.60;99.90;;;;;;5049552;28;20505;-79
2022/08/12 02:03:17;;;;;;;0.22;0.22;;;16.60;99.90;;;;;;5040301;28;20497;-81
2022/08/12 02:12:24;;;;;;;0.40;0.40;;;16.50;99.90;;;;;;5071911;28;20090;-79
2022/08/12 02:15:20;;;;;;;0.30;0.30;;;16.50;99.90;;;;;;5029056;28;20084;-78
2022/08/12 02:18:14;;;;;;;0.10;0.10;;;16.50;99.90;;;;;;5053568;28;20083;-79
2022/08/12 02:20:51;;;;;;;0.20;0.20;;;16.40;99.90;;;;;;5058889;28;20049;-75
2022/08/12 02:23:19;;;;;;;0.20;0.20;;;16.30;99.90;;;;;;5061209;28;20049;-76
2022/08/12 02:25:47;;;;;;;0.30;0.30;;;16.30;99.90;;;;;;5051369;28;20076;-80
2022/08/12 02:28:13;;;;;;;0.30;0.30;;;16.30;99.90;;;;;;5050372;28;20049;-76
2022/08/12 02:30:39;;;;;;;0.10;0.10;;;16.20;99.90;;;;;;5033542;28;20091;-79
2022/08/12 02:33:05;;;;;;;0.30;0.30;;;16.20;99.90;;;;;;5035983;28;20057;-77
2022/08/12 02:35:35;;;;;;;0.20;0.20;;;16.20;99.90;;;;;;5049676;28;20063;-77
2022/08/12 02:38:09;;;;;;;0.20;0.20;;;16.20;99.90;;;;;;5041350;28;20049;-79
2022/08/12 02:40:38;;;;;;;0.20;0.20;;;16.10;99.90;;;;;;5033521;28;20052;-76
2022/08/12 02:43:20;;;;;;;0.20;0.20;;;16.10;99.90;;;;;;5038560;28;20048;-77
2022/08/12 02:46:14;;;;;;;0.20;0.20;;;16.10;99.90;;;;;;5050402;28;20403;-79
2022/08/12 02:48:48;;;;;;;0.20;0.20;;;16.00;99.90;;;;;;5035813;28;20494;-79
2022/08/12 02:51:18;;;;;;;0.30;0.30;;;16.00;99.90;;;;;;5056471;28;20048;-77
2022/08/12 02:53:45;;;;;;;0.38;0.38;;;16.00;99.90;;;;;;5050063;28;20044;-78
2022/08/12 02:56:11;;;;;;;0.20;0.20;;;15.90;99.90;;;;;;5066318;28;20037;-78
2022/08/12 02:58:37;;;;;;;;;;;15.90;99.90;;;;;;5054243;28;20071;-77
2022/08/12 03:01:08;;;;;;;0.20;0.20;;;15.80;99.90;;;;;;5055347;28;19960;-78
2022/08/12 03:03:34;;;;;;;0.20;0.20;;;15.80;99.90;;;;;;5051194;28;20385;-79
2022/08/12 03:06:21;;;;;;;0.90;0.80;;;15.80;99.90;;;;;;5065916;28;20045;-78
2022/08/12 03:08:48;;;;;;;0.20;0.20;;;15.80;99.90;;;;;;5033986;28;20077;-81
2022/08/12 03:11:35;;;;;;;0.35;0.35;;;15.80;99.90;;;;;;5057703;28;20100;-80
2022/08/12 03:14:01;;;;;;;0.30;0.30;;;15.70;99.90;;;;;;5052409;28;20559;-81
2022/08/12 03:16:31;;;;;;;;;;;15.70;99.90;;;;;;5049808;28;20061;-75
2022/08/12 03:18:57;;;;;;;0.20;0.20;;;15.70;99.90;;;;;;5056819;28;19977;-80
2022/08/12 03:21:23;;;;;;;0.20;0.20;;;15.70;99.90;;;;;;5049307;28;20139;-80
2022/08/12 03:23:52;;;;;;;0.25;0.25;;;15.70;99.90;;;;;;5049215;28;20043;-76
2022/08/12 03:26:23;;;;;;;0.20;0.20;;;15.70;99.90;;;;;;5055531;28;20049;-80
2022/08/12 03:28:49;;;;;;;0.20;0.20;;;15.60;99.90;;;;;;5048968;28;20102;-79
2022/08/12 03:31:16;;;;;;;;;;;15.60;99.90;;;;;;5049100;28;20044;-76
2022/08/12 03:33:43;;;;;;;0.30;0.30;;;15.60;99.90;;;;;;5051936;28;19956;-76
2022/08/12 03:36:09;;;;;;;0.17;0.17;;;15.50;99.90;;;;;;5049229;28;20123;-80
2022/08/12 03:38:39;;;;;;;0.20;0.20;;;15.40;99.90;;;;;;5052170;28;20044;-79
2022/08/12 03:41:34;;;;;;;0.22;0.22;;;15.40;99.90;;;;;;5049699;28;20041;-76
2022/08/12 04:00:56;;;;;;;0.20;0.20;;;15.10;99.90;;;;;;5037433;28;20461;-80
2022/08/12 04:06:08;;;;;;;0.30;0.30;;;15.00;99.90;;;;;;5069228;28;20099;-78
2022/08/12 04:08:34;;;;;;;0.20;0.20;;;15.00;99.90;;;;;;5047142;28;20073;-76
2022/08/12 04:13:47;;;;;;;0.43;0.43;;;15.00;99.90;;;;;;5077158;28;20444;-79
2022/08/12 04:16:15;;;;;;;0.20;0.20;;;15.00;99.90;;;;;;5055489;28;20099;-78
2022/08/12 04:18:42;;;;;;;0.30;0.30;;;15.00;99.90;;;;;;5051317;28;20044;-78
2022/08/12 04:21:11;;;;;;;0.30;0.30;;;15.00;99.90;;;;;;5052524;28;20036;-76
2022/08/12 04:23:41;;;;;;;0.20;0.20;;;15.00;99.90;;;;;;5057519;28;20090;-78
2022/08/12 04:26:06;;;;;;;0.35;0.35;;;15.00;99.90;;;;;;5054919;28;20119;-78
2022/08/12 04:28:32;;;;;;;0.28;0.28;;;15.10;99.90;;;;;;5024838;28;20522;-75
2022/08/12 04:30:58;;;;;;;0.30;0.30;;;15.10;99.90;;;;;;5052096;28;20068;-79
2022/08/12 04:33:25;;;;;;;0.20;0.20;;;15.10;99.90;;;;;;5067992;28;20126;-80
2022/08/12 04:35:52;;;;;;;0.20;0.20;;;15.20;99.90;;;;;;5035521;28;20045;-79
2022/08/12 04:38:18;;;;;;;0.20;0.20;;;15.20;99.90;;;;;;5052393;28;20383;-79
2022/08/12 04:40:45;;;;;;;0.43;0.32;;;15.20;99.90;;;;;;5052267;28;20102;-81
2022/08/12 04:43:11;;;;;;;0.20;0.20;;;15.20;99.90;;;;;;5072990;28;20048;-79
2022/08/12 04:45:37;;;;;;;0.30;0.30;;;15.30;99.90;;;;;;5030971;28;20122;-79
2022/08/12 04:48:12;;;;;;;0.30;0.30;;;15.30;99.90;;;;;;5055481;28;20060;-79
2022/08/12 04:50:39;;;;;;;0.30;0.30;;;15.40;99.90;;;;;;5026946;28;20041;-78
2022/08/12 04:53:07;;;;;;;0.20;0.20;;;15.40;99.90;;;;;;5070567;28;20479;-80
2022/08/12 04:55:33;;;;;;;0.30;0.30;;;15.50;99.90;;;;;;5051804;28;20044;-77
2022/08/12 04:57:59;;;;;;;0.20;0.20;;;15.50;99.90;;;;;;5051207;28;20611;-78
2022/08/12 05:00:26;;;;;;;;;;;15.50;99.90;;;;;;5052458;28;20127;-78
2022/08/12 05:02:52;;;;;;;0.38;0.38;;;15.50;99.90;;;;;;5042387;28;20148;-75
2022/08/12 05:05:21;;;;;;;0.20;0.20;;;15.60;99.90;;;;;;5037446;28;20076;-79
2022/08/12 05:07:48;;;;;;;0.22;0.22;;;15.60;99.90;;;;;;5068234;28;20037;-79
2022/08/12 05:10:15;;;;;;;0.20;0.20;;;15.60;99.90;;;;;;5059543;28;20072;-78
2022/08/12 05:12:45;;;;;;;0.30;0.30;;;15.70;99.90;;;;;;5054065;28;20029;-78
2022/08/12 05:15:12;;;;;;;0.20;0.20;;;15.70;99.90;;;;;;5037209;28;20045;-81
2022/08/12 05:17:41;;;;;;;0.40;0.40;;;15.80;99.90;;;;;;5053063;28;20098;-78
2022/08/12 05:20:14;;;;;;;0.35;0.35;;;15.90;99.90;;;;;;5035952;28;20045;-77
2022/08/12 05:22:44;;;;;;;0.30;0.30;;;16.00;99.90;;;;;;5049139;28;20048;-76
2022/08/12 05:25:10;;;;;;;0.20;0.20;;;16.00;99.90;;;;;;5053129;28;20064;-79
2022/08/12 05:27:38;;;;;;;0.20;0.20;;;16.10;99.90;;;;;;5054531;28;20051;-80
2022/08/12 05:30:05;;;;;;;0.30;0.30;;;16.20;99.90;;;;;;5051275;28;20510;-80
2022/08/12 05:32:30;;;;;;;0.25;0.25;;;16.30;99.90;;;;;;5048595;28;20059;-80
2022/08/12 05:34:57;;;;;;;;;;;16.30;99.90;;;;;;5047018;28;20132;-81
2022/08/12 05:37:23;;;;;;;0.20;0.20;;;16.40;99.90;;;;;;5027842;28;19916;-82
2022/08/12 05:39:49;;;;;;;;;;;16.50;99.90;;;;;;5015812;28;20399;-77
2022/08/12 05:42:15;;;;;;;0.20;0.20;;;16.50;99.90;;;;;;5036872;28;19924;-79
2022/08/12 05:44:41;;;;;;;0.22;0.22;;;16.70;99.90;;;;;;5044799;28;20101;-81
2022/08/12 05:47:07;;;;;;;;;;;16.70;99.90;;;;;;5052242;28;20037;-78
2022/08/12 05:49:33;;;;;;;0.20;0.20;;;16.80;99.90;;;;;;5050814;28;20389;-76
2022/08/12 05:52:01;;;;;;;0.25;0.25;;;16.90;99.90;;;;;;5053126;28;20600;-78
2022/08/12 05:54:27;;;;;;;0.15;0.15;;;16.90;99.90;;;;;;5036577;28;20072;-79
2022/08/12 05:56:52;;;;;;;;;;;17.00;99.90;;;;;;5051502;28;20079;-84
2022/08/12 05:59:20;;;;;;;0.20;0.20;;;17.10;99.90;;;;;;5050544;28;20492;-80
2022/08/12 06:01:46;;;;;;;0.20;0.20;;;17.20;99.90;;;;;;5045279;28;20509;-75
2022/08/12 06:04:13;;;;;;;;;;;17.30;99.90;;;;;;5051251;28;20068;-77
2022/08/12 06:06:42;;;;;;;0.28;0.28;;;17.40;99.90;;;;;;5036298;28;20009;-80
2022/08/12 06:09:10;;;;;;;0.20;0.20;;;17.40;99.90;;;;;;5026173;28;20455;-77
2022/08/12 06:11:40;;;;;;;0.20;0.20;;;17.70;99.90;;;;;;5056534;28;20704;-79
2022/08/12 06:14:06;;;;;;;0.13;0.13;;;17.90;99.90;;;;;;5067030;28;20438;-79
2022/08/12 06:16:32;;;;;;;;;;;17.70;99.90;;;;;;5058440;28;20041;-78
2022/08/12 06:18:58;;;;;;;0.20;0.20;;;18.20;99.90;;;;;;5061926;28;19930;-76
2022/08/12 06:21:23;;;;;;;;;;;17.90;99.90;;;;;;5051254;28;20128;-81
2022/08/12 06:23:50;;;;;;;0.13;0.13;;;18.10;99.90;;;;;;5024113;28;19974;-77
2022/08/12 06:26:19;;;;;;;1.67;0.40;;;18.50;99.90;;;;;;5033981;28;20045;-78
2022/08/12 06:28:49;;;;;;;0.20;0.20;;;18.40;99.90;;;;;;5050716;28;20076;-76
2022/08/12 06:31:16;;;;;;;0.20;0.20;;;;;;;;;;5030213;28;20128;-79
2022/08/12 06:33:44;;;;;;;0.20;0.20;;;18.70;99.90;;;;;;5031835;28;20049;-75
2022/08/12 06:36:12;;;;;;;0.10;0.10;;;19.10;99.90;;;;;;5034136;28;20124;-77
2022/08/12 06:38:40;;;;;;;0.17;0.17;;;19.00;99.90;;;;;;5063568;28;20399;-79
2022/08/12 06:43:51;;;;;;;0.20;0.20;;;19.10;99.90;;;;;;5056929;28;20052;-81
2022/08/12 06:46:18;;;;;;;0.20;0.20;;;;;;;;;;5033760;28;20036;-80
2022/08/12 06:48:44;;;;;;;0.20;0.20;;;;;;;;;;5050630;28;20109;-79
2022/08/12 06:51:11;;;;;;;0.20;0.20;;;;;;;;;;5061699;28;20424;-76
2022/08/12 06:53:37;;;;;;;0.28;0.28;;;;;;;;;;5057254;28;20045;-79
2022/08/12 06:56:04;;;;;;;0.20;0.20;;;;;;;;;;5059207;28;20037;-79
2022/08/12 06:58:31;;;;;;;0.80;0.80;;;20.60;99.90;;;;;;5052684;28;20091;-82
2022/08/12 07:00:58;;;;;;;0.30;0.30;;;20.60;99.90;;;;;;5035066;28;20041;-79
2022/08/12 07:03:43;;;;;;;0.20;0.20;;;20.70;99.90;;;;;;5056199;28;20040;-81
2022/08/12 07:06:12;;;;;;;0.20;0.20;;;20.90;99.90;;;;;;5064947;28;20051;-81
2022/08/12 07:08:38;;;;;;;0.20;0.20;;;21.00;99.90;;;;;;5043699;28;20045;-79
2022/08/12 07:11:10;;;;;;;0.13;0.13;;;21.10;99.90;;;;;;5049944;28;20064;-78
2022/08/12 07:13:41;;;;;;;0.30;0.30;;;21.30;99.90;;;;;;5068995;28;20196;-77
2022/08/12 07:16:09;;;;;;;0.20;0.20;;;21.40;99.90;;;;;;5047481;28;20080;-79
2022/08/12 07:18:35;;;;;;;0.20;0.20;;;21.60;99.90;;;;;;5049998;28;20041;-77
2022/08/12 07:21:03;;;;;;;0.40;0.40;;;21.70;99.90;;;;;;5053851;28;20037;-78
2022/08/12 07:23:34;;;;;;;0.10;0.10;;;21.80;99.90;;;;;;5046789;28;20044;-75
2022/08/12 07:26:01;;;;;;;0.13;0.13;;;22.00;99.90;;;;;;5050697;28;20037;-77
2022/08/12 07:28:29;;;;;;;0.40;0.40;;;22.20;99.90;;;;;;5054658;28;20048;-76
2022/08/12 07:30:56;;;;;;;0.22;0.22;;;22.30;99.90;;;;;;5056606;28;20052;-79
2022/08/12 07:33:26;;;;;;;0.20;0.20;;;22.40;99.90;;;;;;5051735;28;20135;-78
2022/08/12 07:35:53;;;;;;;0.15;0.15;;;22.50;99.90;;;;;;5065220;28;20167;-77
2022/08/12 07:38:26;;;;;;;0.20;0.20;;;22.60;99.90;;;;;;5056241;28;20089;-80
2022/08/12 07:41:01;;;;;;;0.20;0.20;;;22.70;99.90;;;;;;5071326;28;20040;-77
2022/08/12 07:43:29;;;;;;;0.17;0.17;;;22.80;99.90;;;;;;5060296;28;20041;-80
2022/08/12 07:45:56;;;;;;;0.10;0.10;;;23.00;99.90;;;;;;5058103;28;20040;-79
2022/08/12 07:48:23;;;;;;;0.30;0.30;;;23.30;99.90;;;;;;5052786;28;20052;-79
2022/08/12 07:50:49;;;;;;;0.20;0.20;;;23.40;99.90;;;;;;5043754;28;20071;-78
2022/08/12 07:53:15;;;;;;;0.20;0.20;;;23.50;99.90;;;;;;5057917;28;20049;-76
2022/08/12 07:55:41;;;;;;;0.30;0.30;;;;;;;;;;5036348;28;20095;-78
2022/08/12 07:58:07;;;;;;;0.20;0.20;;;23.60;99.90;;;;;;5052064;28;20048;-77
2022/08/12 08:00:35;;;;;;;0.20;0.20;;;23.80;99.90;;;;;;5069790;28;20155;-81
2022/08/12 08:03:01;;;;;;;0.10;0.10;;;23.80;99.90;;;;;;5071766;28;20057;-80
2022/08/12 08:05:45;;;;;;;0.40;0.40;;;24.00;99.90;;;;;;5036029;28;20543;-78
2022/08/12 08:08:26;;;;;;;0.10;0.10;;;24.00;99.90;;;;;;5074598;28;20376;-76
2022/08/12 08:12:52;;;;;;;0.20;0.20;;;24.10;99.90;;;;;;5052601;28;20072;-78
2022/08/12 08:13:42;;;;;;;0.13;0.13;;;24.20;99.90;;;;;;5061772;28;20051;-74
2022/08/12 08:16:08;;;;;;;0.25;0.25;;;24.40;99.90;;;;;;5052055;28;20098;-80
2022/08/12 08:18:33;;;;;;;0.10;0.10;;;24.40;99.90;;;;;;5051706;28;20037;-78
2022/08/12 08:20:59;;;;;;;0.10;0.10;;;24.50;99.90;;;;;;5056999;28;20521;-75
2022/08/12 08:24:13;;;;;;;0.40;0.40;;;24.60;99.90;;;;;;5053083;28;20044;-81
2022/08/12 08:26:14;;;;;;;0.20;0.20;;;24.70;99.90;;;;;;5069013;28;20448;-77
2022/08/12 08:28:40;;;;;;;0.20;0.20;;;24.80;99.90;;;;;;5044226;28;20159;-78
2022/08/12 08:31:06;;;;;;;0.17;0.17;;;24.90;99.90;;;;;;5051383;28;20578;-78
2022/08/12 08:33:32;;;;;;;0.20;0.20;;;24.90;99.90;;;;;;5034423;28;20049;-75
2022/08/12 08:35:58;;;;;;;0.10;0.10;;;25.10;99.90;;;;;;5052809;28;20127;-78
2022/08/12 08:38:24;;;;;;;0.17;0.17;;;25.20;99.90;;;;;;5054388;28;20052;-75
2022/08/12 08:43:34;;;;;;;0.85;0.40;;;25.30;99.90;;;;;;5059029;28;20620;-76
2022/08/12 08:46:04;;;;;;;0.10;0.10;;;25.40;99.90;;;;;;5058148;28;20040;-77
2022/08/12 08:48:33;;;;;;;0.25;0.25;;;25.50;99.90;;;;;;5034511;28;20073;-79
2022/08/12 08:50:59;;;;;;;0.10;0.10;;;25.60;99.90;;;;;;5037061;28;20054;-79
2022/08/12 08:53:27;;;;;;;0.13;0.13;;;25.60;99.90;;;;;;5067409;28;20045;-77
2022/08/12 08:55:53;;;;;;;0.20;0.20;;;25.70;99.90;;;;;;5052917;28;20143;-75
2022/08/12 08:58:21;;;;;;;0.30;0.30;;;25.80;99.90;;;;;;5051781;28;20463;-80
2022/08/12 09:00:51;;;;;;;0.05;0.05;;;25.90;99.90;;;;;;5053229;28;20036;-78
2022/08/12 09:03:17;;;;;;;0.30;0.30;;;25.90;99.90;;;;;;5051334;28;20049;-81
2022/08/12 09:05:44;;;;;;;0.20;0.20;;;26.00;99.90;;;;;;5069017;28;20040;-76
2022/08/12 09:08:10;;;;;;;0.20;0.20;;;26.10;99.90;;;;;;5033529;28;20399;-80
2022/08/12 09:10:37;;;;;;;0.30;0.30;;;26.20;99.20;;;;;;5018397;28;20244;-80
2022/08/12 09:15:49;;;;;;;0.57;0.57;;;26.30;98.10;;;;;;5059503;28;20059;-83
2022/08/12 09:18:17;;;;;;;0.20;0.20;;;26.40;99.00;;;;;;5033850;28;20600;-76
2022/08/12 09:20:43;;;;;;;0.17;0.17;;;26.60;98.80;;;;;;5054214;28;20114;-77
2022/08/12 09:23:11;;;;;;;0.22;0.22;;;26.70;99.90;;;;;;5053018;28;20402;-79
2022/08/12 09:25:39;;;;;;;0.20;0.20;;;26.80;97.70;;;;;;5055892;28;20151;-81
2022/08/12 09:28:09;;;;;;;0.40;0.40;;;26.90;96.00;;;;;;5051679;28;20122;-74
2022/08/12 09:30:39;;;;;;;0.10;0.10;;;26.90;97.40;;;;;;5043221;28;20041;-75
2022/08/12 09:33:05;;;;;;;0.20;0.20;;;27.00;97.70;;;;;;5034725;28;20124;-78
2022/08/12 09:35:43;;;;;;;0.10;0.10;;;27.10;96.00;;;;;;5034639;28;20044;-79
2022/08/12 09:38:15;;;;;;;0.30;0.30;;;27.10;95.90;;;;;;5036093;28;20041;-79
2022/08/12 09:40:41;;;;;;;0.10;0.10;;;27.20;95.40;;;;;;5049695;28;20044;-79
2022/08/12 09:45:52;;;;;;;0.15;0.15;;;27.40;90.10;;;;;;5052058;28;20043;-77
2022/08/12 09:48:18;;;;;;;0.20;0.20;;;27.40;85.80;;;;;;5052640;28;20131;-77
2022/08/12 09:50:45;;;;;;;0.43;0.43;;;27.50;90.70;;;;;;5052636;28;20043;-78
2022/08/12 09:53:19;;;;;;;0.30;0.30;;;27.50;90.30;;;;;;5075820;28;20512;-75
2022/08/12 09:55:51;;;;;;;0.10;0.10;;;27.60;85.50;;;;;;5050568;28;20049;-80
2022/08/12 09:58:27;;;;;;;0.52;0.52;;;27.60;90.00;;;;;;5066220;28;20057;-79
2022/08/12 10:01:01;;;;;;;0.40;0.40;;;27.70;84.60;;;;;;5067669;28;20424;-79
2022/08/12 10:03:32;;;;;;;0.30;0.30;;;27.80;87.30;;;;;;5051204;28;20045;-79
2022/08/12 10:06:00;;;;;;;0.20;0.20;;;28.00;80.30;;;;;;5051843;28;20048;-81
2022/08/12 10:08:31;;;;;;;0.20;0.20;;;28.00;80.20;;;;;;5051020;28;20553;-79
2022/08/12 10:13:45;;;;;;;;;;;28.20;82.30;;;;;;5050633;28;20509;-80
2022/08/12 10:16:10;;;;;;;0.20;0.20;;;28.30;78.40;;;;;;5032947;28;19924;-79
2022/08/12 10:18:38;;;;;;;0.17;0.17;;;28.30;75.70;;;;;;5052598;28;20410;-77
2022/08/12 10:21:10;;;;;;;0.10;0.10;;;28.40;82.10;;;;;;5050368;28;20037;-79
2022/08/12 10:23:37;;;;;;;0.20;0.20;;;28.50;82.30;;;;;;5016038;28;20041;-80
2022/08/12 10:31:33;;;;;;;0.15;0.15;;;28.80;75.50;;;;;;5051211;28;20495;-79
2022/08/12 10:33:59;;;;;;;0.10;0.10;;;28.80;80.40;;;;;;5050852;28;20057;-78
2022/08/12 10:36:25;;;;;;;0.20;0.20;;;29.00;80.20;;;;;;5033125;28;20098;-76
2022/08/12 10:38:51;;;;;;;0.10;0.10;;;29.10;72.10;;;;;;5059472;28;20154;-75
2022/08/12 10:44:04;;;;;;;0.20;0.20;;;29.20;71.80;;;;;;5056282;28;20509;-79
2022/08/12 10:46:31;;;;;;;0.15;0.15;;;29.20;73.00;;;;;;5055923;28;20059;-81
2022/08/12 10:48:58;;;;;;;0.10;0.10;;;29.30;78.60;;;;;;5049073;28;20059;-81
2022/08/12 10:51:25;;;;;;;0.20;0.20;;;29.30;71.20;;;;;;5050187;28;20383;-81
2022/08/12 10:53:55;;;;;;;0.28;0.28;;;29.40;70.90;;;;;;5036505;28;20386;-78
2022/08/12 10:56:21;;;;;;;0.20;0.20;;;29.50;71.80;;;;;;5063669;28;20044;-78
2022/08/12 10:58:47;;;;;;;1.27;0.47;;;29.60;70.50;;;;;;5049415;28;20498;-79
2022/08/12 11:01:14;;;;;;;0.40;0.40;;;29.70;68.10;;;;;;5065709;28;20037;-80
2022/08/12 11:03:40;;;;;;;0.63;0.63;;;29.70;68.10;;;;;;5050806;28;20117;-77
2022/08/12 11:06:09;;;;;;;0.52;0.40;;;29.80;65.20;;;;;;5051091;28;20124;-78
2022/08/12 11:08:39;;;;;;;0.20;0.20;;;29.70;63.10;;;;;;5045104;28;20042;-81
2022/08/12 11:11:07;;;;;;;0.20;0.20;;;29.70;66.00;;;;;;5052454;28;20150;-79
2022/08/12 11:13:36;;;;;;;0.45;0.45;;;29.80;68.60;;;;;;5070064;28;20098;-79
2022/08/12 11:16:04;;;;;;;0.20;0.20;;;30.00;63.20;;;;;;5061092;28;20060;-76
2022/08/12 11:18:30;;;;;;;0.20;0.20;;;30.10;67.00;;;;;;5053925;28;20479;-77
2022/08/12 11:20:59;;;;;;;0.43;0.43;;;30.10;67.00;;;;;;5057139;28;20069;-78
2022/08/12 11:23:25;;;;;;;0.20;0.20;;;30.20;58.20;;;;;;5049694;28;20045;-82
2022/08/12 11:25:51;;;;;;;0.20;0.20;;;30.20;59.90;;;;;;5057027;28;20053;-79
2022/08/12 11:28:18;;;;;;;0.20;0.20;;;30.20;66.80;;;;;;5052529;28;20041;-76
2022/08/12 11:30:44;;;;;;;0.10;0.10;;;30.30;64.20;;;;;;5053189;28;20048;-80
2022/08/12 11:33:11;;;;;;;0.10;0.10;;;30.50;62.40;;;;;;5032706;28;20049;-75
2022/08/12 11:35:37;;;;;;;0.80;0.77;;;30.60;61.10;;;;;;5056285;28;20494;-78
2022/08/12 11:38:04;;;;;;;0.20;0.20;;;30.60;64.20;;;;;;5051740;28;20509;-81
2022/08/12 11:40:30;;;;;;;0.10;0.10;;;30.70;60.50;;;;;;5053955;28;20045;-77
2022/08/12 11:42:59;;;;;;;0.32;0.30;;;30.70;58.40;;;;;;5041931;28;20490;-78
2022/08/12 11:45:26;;;;;;;0.30;0.30;;;30.70;54.30;;;;;;5027460;28;20049;-76
2022/08/12 11:47:54;;;;;;;0.13;0.13;;;30.70;56.70;;;;;;5052971;28;20097;-79
2022/08/12 11:50:20;;;;;;;0.10;0.10;;;30.70;57.10;;;;;;5053627;28;20124;-74
2022/08/12 11:52:50;;;;;;;0.10;0.10;;;30.80;58.90;;;;;;5070616;28;20080;-76
2022/08/12 11:55:17;;;;;;;0.10;0.10;;;30.90;59.00;;;;;;5068513;28;20053;-78
2022/08/12 11:57:50;;;;;;;0.22;0.20;;;31.00;59.10;;;;;;5052310;28;20049;-80
2022/08/12 12:00:16;;;;;;;0.30;0.30;;;31.00;53.90;;;;;;5052647;28;20052;-78
2022/08/12 12:02:42;;;;;;;0.00;0.00;;;31.00;55.20;;;;;;5054537;28;20045;-81
2022/08/12 12:05:08;;;;;;;0.20;0.20;;;31.10;55.80;;;;;;5054007;28;20448;-80
2022/08/12 12:07:41;;;;;;;0.08;0.08;;;31.20;59.40;;;;;;5051943;28;20356;-81
2022/08/12 12:10:07;;;;;;;0.20;0.20;;;31.30;58.70;;;;;;5045931;28;20049;-77
2022/08/12 12:12:33;;;;;;;0.75;0.55;;;31.50;53.20;;;;;;5068038;28;20055;-77
2022/08/12 12:14:59;;;;;;;0.28;0.28;;;31.60;55.80;;;;;;5052361;28;20032;-77
2022/08/12 12:17:25;;;;;;;0.10;0.10;;;31.50;55.80;;;;;;5039937;28;20604;-78
2022/08/12 12:19:51;;;;;;;0.15;0.15;;;31.60;55.60;;;;;;5054560;28;20153;-79
2022/08/12 12:22:18;;;;;;;0.15;0.15;;;31.80;54.90;;;;;;5032970;28;20045;-80
2022/08/12 12:24:49;;;;;;;0.70;0.70;;;31.90;57.30;;;;;;5054605;28;20037;-76
2022/08/12 12:27:19;;;;;;;0.17;0.17;;;32.10;55.60;;;;;;5057295;28;20047;-80
2022/08/12 12:29:45;;;;;;;0.13;0.13;;;32.20;54.70;;;;;;5052478;28;20052;-79
2022/08/12 12:32:11;;;;;;;0.20;0.20;;;32.20;53.30;;;;;;5054312;28;20070;-80
2022/08/12 12:34:39;;;;;;;0.10;0.10;;;32.30;54.50;;;;;;5034924;28;20048;-79
2022/08/12 12:37:11;;;;;;;0.13;0.13;;;32.20;49.20;;;;;;5052123;28;20450;-80
2022/08/12 12:39:36;;;;;;;0.10;0.10;;;32.10;53.80;;;;;;5069898;28;20128;-80
2022/08/12 12:42:02;;;;;;;0.45;0.10;;;32.00;50.50;;;;;;5055562;28;20132;-77
2022/08/12 12:44:30;;;;;;;0.30;0.30;;;32.20;52.30;;;;;;5061560;28;20043;-79
2022/08/12 12:46:59;;;;;;;0.30;0.30;;;32.20;50.00;;;;;;5055441;28;20033;-76
2022/08/12 12:49:25;;;;;;;0.10;0.10;;;32.30;54.30;;;;;;5051232;28;20067;-76
2022/08/12 12:51:50;;;;;;;0.10;0.10;;;32.60;53.70;;;;;;5051546;28;20483;-76
2022/08/12 12:54:16;;;;;;;0.10;0.10;;;32.70;52.60;;;;;;5052377;28;20049;-78
2022/08/12 12:56:43;;;;;;;0.10;0.10;;;32.90;50.10;;;;;;5063999;28;20120;-80
2022/08/12 12:59:09;;;;;;;0.15;0.15;;;33.00;51.30;;;;;;5068170;28;20053;-80
2022/08/12 13:01:37;;;;;;;0.13;0.13;;;33.20;52.60;;;;;;5067405;28;20037;-78
2022/08/12 13:04:04;;;;;;;0.38;0.38;;;33.50;53.00;;;;;;5066881;28;20494;-77
2022/08/12 13:06:30;;;;;;;0.20;0.20;;;33.70;48.20;;;;;;5065875;28;20092;-79
2022/08/12 13:08:58;;;;;;;0.10;0.10;;;33.50;50.00;;;;;;5032040;28;20081;-77
2022/08/12 13:11:23;;;;;;;0.00;0.00;;;33.30;49.50;;;;;;5050623;28;20373;-76
2022/08/12 13:13:52;;;;;;;0.00;0.00;;;33.40;50.20;;;;;;5053765;28;20482;-77
2022/08/12 13:16:21;;;;;;;0.20;0.20;;;33.60;51.50;;;;;;5051688;28;20052;-76
2022/08/12 13:18:51;;;;;;;0.10;0.10;;;33.70;50.80;;;;;;5055625;28;20095;-76
2022/08/12 13:21:18;;;;;;;0.10;0.10;;;33.90;51.30;;;;;;5055239;28;20144;-79
2022/08/12 13:23:45;;;;;;;0.10;0.10;;;34.00;51.70;;;;;;5054776;28;20097;-77
2022/08/12 13:26:18;;;;;;;0.50;0.50;;;34.20;47.70;;;;;;5056008;28;20040;-76
2022/08/12 13:28:45;;;;;;;0.10;0.10;;;34.20;49.90;;;;;;5061200;28;20037;-79
2022/08/12 13:31:12;;;;;;;0.17;0.17;;;34.20;49.30;;;;;;5055558;28;20040;-80
2022/08/12 13:33:38;;;;;;;0.10;0.10;;;34.40;50.60;;;;;;5035379;28;20141;-79
2022/08/12 13:36:04;;;;;;;0.10;0.10;;;34.70;48.90;;;;;;5058387;28;20503;-78
2022/08/12 13:38:45;;;;;;;0.10;0.10;;;34.70;50.90;;;;;;5050664;28;20431;-75
2022/08/12 13:41:35;;;;;;;0.10;0.10;;;34.80;51.50;;;;;;5050762;28;20073;-78
2022/08/12 13:44:03;;;;;;;0.10;0.10;;;35.10;49.10;;;;;;5054908;28;20041;-77
2022/08/12 13:46:29;;;;;;;0.10;0.10;;;35.50;48.00;;;;;;5055969;28;20060;-76
2022/08/12 13:48:55;;;;;;;0.00;0.00;;;35.60;49.30;;;;;;5052863;28;20486;-79
2022/08/12 13:51:22;;;;;;;0.10;0.10;;;35.80;48.90;;;;;;5020698;28;20140;-77
2022/08/12 13:53:47;;;;;;;0.20;0.20;;;36.00;48.90;;;;;;5042873;28;20277;-77
2022/08/12 13:56:16;;;;;;;0.10;0.10;;;36.20;48.70;;;;;;5076693;28;20120;-79
2022/08/12 13:58:47;;;;;;;0.25;0.25;;;36.50;46.50;;;;;;5050210;28;20505;-77
2022/08/12 14:01:14;;;;;;;0.10;0.10;;;36.60;49.90;;;;;;5076315;28;20056;-75
2022/08/12 14:03:41;;;;;;;0.10;0.10;;;36.30;45.20;;;;;;5049926;28;20037;-77
2022/08/12 14:06:13;;;;;;;0.10;0.10;;;36.40;47.70;;;;;;5051428;28;20112;-76
2022/08/12 14:08:38;;;;;;;0.20;0.20;;;36.70;49.80;;;;;;5059565;28;20399;-79
2022/08/12 14:11:05;;;;;;;0.20;0.20;;;37.10;46.80;;;;;;5032957;28;20041;-76
2022/08/12 14:13:36;;;;;;;0.20;0.20;;;37.20;46.90;;;;;;5060160;28;20120;-79
2022/08/12 14:16:02;;;;;;;0.10;0.10;;;37.40;44.50;;;;;;5052511;28;20029;-77
2022/08/12 14:18:30;;;;;;;0.20;0.20;;;37.60;44.20;;;;;;5049405;28;20049;-79
2022/08/12 14:21:11;;;;;;;0.20;0.20;;;37.30;44.60;;;;;;5056303;28;20044;-80
2022/08/12 14:23:38;;;;;;;0.10;0.10;;;37.10;44.10;;;;;;5048957;28;20087;-79
2022/08/12 14:26:13;;;;;;;0.10;0.10;;;36.60;49.70;;;;;;5033452;28;20489;-79
2022/08/12 14:28:40;;;;;;;0.50;0.50;;;36.30;45.90;;;;;;5019792;28;20052;-78
2022/08/12 14:31:07;;;;;;;0.20;0.20;;;36.20;50.70;;;;;;5033113;28;20375;-76
2022/08/12 14:33:46;;;;;;;0.05;0.05;;;36.30;48.00;;;;;;5050837;28;20187;-78
2022/08/12 14:36:15;;;;;;;0.20;0.17;;;36.40;46.70;;;;;;5041054;28;20045;-78
2022/08/12 14:38:43;;;;;;;0.20;0.20;;;36.50;47.60;;;;;;5037922;28;20045;-79
2022/08/12 14:41:10;;;;;;;0.65;0.65;;;36.60;48.00;;;;;;5049261;28;20482;-78
2022/08/12 14:43:37;;;;;;;0.40;0.40;;;36.70;47.90;;;;;;5057076;28;20051;-78
2022/08/12 14:46:05;;;;;;;0.40;0.40;;;36.60;47.30;;;;;;5036880;28;20044;-81